Sandspit Airport
CYZP : now visible

Airfield :











YOU CAN JOIN US ON...

 
LOGIN :

Register | Disclaimer

   EN    FR    IT 

 









Legend :    VFR   Marginal VFR   IFR   Intensive IFR   Very Intensive IFR
Visi :
Ceiling :
>= 8 km
>= 3000ft
5 to 8 km
1000 to 3000 ft
1500m to 5 km
500 to 1000 ft
800 to 1500m
200 to 500 ft
< 800m
< 200 ft
Symbols :   Thunderstorms  Fog  Heavy snow  Heavy precipitations  Wind > 20 kt






- Airport Elevation : 21 ft
- IATA code : YZP


CYZP - Sandspit

CURRENT METAR :
  • 170100Z AUTO 10006KT 9SM SCT036 16/09 A3010 RMK SLP196

EXPIRED METARs :
  • 170000Z AUTO 06007KT 9SM CLR 15/09 A3012 RMK SLP201
  • 162300Z AUTO 06006KT 9SM CLR 15/09 A3013 RMK SLP204
  • 162200Z AUTO 07004KT 9SM BKN032 15/08 A3014 RMK SLP209
  • 162100Z AUTO 05006KT 9SM OVC030 14/08 A3015 RMK SLP211

TAF TAF CYZP
Valid from the 17 at 01:00 until the 17 at 13:00 UTC


170100Z 1701/1713 06007KT P6SM SCT020
TEMPO 1701/1704 BKN020
FM170400 28012KT P6SM FEW030 RMK FCST BASED ON AUTO OBS. NXT FCST BY 170700Z
CZVR FIR / North America



MET'MAP, your aeronautical weather chart ! - Copyright ORBIFLY December 2007 - Disclaimer

ORBIFLY MET'MAP TEAM :

Programming & Development : Alexandra Zaïnal
Original concept : Baudouin d'Aumeries
Technical & hardware support : Manuel Goepfert
Assistance : Marc-Olivier Méhu




SOURCES & CREDITS :

   NOAA       Earth
Advisory